createdAt,value
2018-12-23T00:00:58.981Z,38.70
2018-12-23T00:03:25.392Z,38.68
2018-12-23T00:05:51.749Z,38.65
2018-12-23T00:08:18.147Z,38.71
2018-12-23T00:10:44.465Z,38.90
2018-12-23T00:13:10.797Z,38.80
2018-12-23T00:15:37.143Z,38.77
2018-12-23T00:18:03.476Z,38.92
2018-12-23T00:20:29.908Z,38.86
2018-12-23T00:22:56.245Z,38.82
2018-12-23T00:25:22.627Z,38.82
2018-12-23T00:27:49.010Z,38.82
2018-12-23T00:30:15.336Z,38.89
2018-12-23T00:32:41.685Z,38.85
2018-12-23T00:35:08.040Z,38.82
2018-12-23T00:37:34.422Z,38.83
2018-12-23T00:40:00.753Z,38.78
2018-12-23T00:42:27.085Z,38.73
2018-12-23T00:44:53.469Z,38.67
2018-12-23T00:47:19.862Z,38.60
2018-12-23T00:49:46.190Z,38.67
2018-12-23T00:52:12.593Z,38.58
2018-12-23T00:54:38.942Z,38.68
2018-12-23T00:57:05.451Z,38.53
2018-12-23T00:59:31.777Z,38.70
2018-12-23T01:01:58.165Z,38.53
2018-12-23T01:04:24.504Z,38.57
2018-12-23T01:06:50.828Z,38.58
2018-12-23T01:09:17.179Z,38.74
2018-12-23T01:11:43.514Z,38.65
2018-12-23T01:14:09.970Z,38.83
2018-12-23T01:16:36.298Z,38.66
2018-12-23T01:19:02.683Z,38.68
2018-12-23T01:21:31.728Z,38.70
2018-12-23T01:23:58.108Z,38.52
2018-12-23T01:26:24.464Z,38.59
2018-12-23T01:28:50.848Z,38.54
2018-12-23T01:31:17.179Z,38.56
2018-12-23T01:33:43.582Z,38.69
2018-12-23T01:36:09.921Z,38.80
2018-12-23T01:38:36.288Z,38.60
2018-12-23T01:41:04.466Z,38.51
2018-12-23T01:43:29.099Z,38.35
2018-12-23T01:45:55.427Z,38.31
2018-12-23T01:48:21.753Z,38.26
2018-12-23T01:50:48.142Z,38.36
2018-12-23T01:53:14.491Z,38.42
2018-12-23T01:55:40.838Z,38.35
2018-12-23T01:58:07.169Z,38.30
2018-12-23T02:00:33.559Z,38.34
2018-12-23T02:02:59.879Z,38.37
2018-12-23T02:05:26.383Z,38.13
2018-12-23T02:07:52.711Z,38.20
2018-12-23T02:10:19.076Z,38.30
2018-12-23T02:12:45.390Z,38.37
2018-12-23T02:15:11.736Z,38.40
2018-12-23T02:17:38.116Z,38.44
2018-12-23T02:20:04.511Z,38.38
2018-12-23T02:22:30.874Z,38.47
2018-12-23T02:24:57.285Z,38.24
2018-12-23T02:27:23.554Z,38.26
2018-12-23T02:29:49.894Z,38.30
2018-12-23T02:32:16.240Z,38.41
2018-12-23T02:34:42.681Z,38.35
2018-12-23T02:37:08.958Z,38.30
2018-12-23T02:39:35.333Z,38.26
2018-12-23T02:42:01.692Z,38.23
2018-12-23T02:44:28.021Z,38.25
2018-12-23T02:46:54.360Z,38.08
2018-12-23T02:49:20.713Z,38.17
2018-12-23T02:51:47.089Z,38.14
2018-12-23T02:54:13.428Z,38.08
2018-12-23T02:56:39.781Z,38.23
2018-12-23T02:59:06.159Z,38.32
2018-12-23T03:01:32.614Z,38.21
2018-12-23T03:03:59.002Z,38.22
2018-12-23T03:06:25.347Z,38.10
2018-12-23T03:08:51.681Z,38.17
2018-12-23T03:11:18.037Z,38.24
2018-12-23T03:13:44.536Z,38.30
2018-12-23T03:16:10.869Z,38.22
2018-12-23T03:18:37.200Z,38.20
2018-12-23T03:21:03.555Z,38.27
2018-12-23T03:23:29.884Z,38.25
2018-12-23T03:25:56.217Z,38.18
2018-12-23T03:28:22.546Z,38.12
2018-12-23T03:30:48.953Z,38.12
2018-12-23T03:33:15.285Z,38.18
2018-12-23T03:35:41.680Z,38.23
2018-12-23T03:38:08.176Z,38.21
2018-12-23T03:40:34.531Z,38.23
2018-12-23T03:43:00.905Z,38.24
2018-12-23T03:45:27.234Z,38.21
2018-12-23T03:47:53.563Z,38.26
2018-12-23T03:50:19.953Z,38.08
2018-12-23T03:52:46.289Z,38.17
2018-12-23T03:55:12.644Z,38.35
2018-12-23T03:57:38.988Z,38.36
2018-12-23T04:00:05.376Z,38.34
2018-12-23T04:02:31.710Z,38.44
2018-12-23T04:04:58.058Z,38.46
2018-12-23T04:07:24.418Z,38.16
2018-12-23T04:09:50.760Z,38.20
2018-12-23T04:12:17.103Z,38.26
2018-12-23T04:14:43.449Z,38.22
2018-12-23T04:17:09.761Z,38.46
2018-12-23T04:19:36.095Z,38.27
2018-12-23T04:22:02.445Z,38.44
2018-12-23T04:24:28.821Z,38.39
2018-12-23T04:26:55.119Z,38.45
2018-12-23T04:29:21.533Z,38.31
2018-12-23T04:31:47.858Z,38.30
2018-12-23T04:34:14.191Z,38.34
2018-12-23T04:36:40.551Z,38.45
2018-12-23T04:39:07.052Z,38.35
2018-12-23T04:41:33.377Z,38.27
2018-12-23T04:43:59.708Z,38.40
2018-12-23T04:46:26.043Z,38.33
2018-12-23T04:48:52.463Z,38.28
2018-12-23T04:51:18.805Z,38.27
2018-12-23T04:53:45.192Z,38.53
2018-12-23T04:56:11.519Z,38.48
2018-12-23T04:58:37.854Z,38.61
2018-12-23T05:01:04.200Z,38.52
2018-12-23T05:03:30.531Z,38.47
2018-12-23T05:05:56.907Z,38.48
2018-12-23T05:08:23.203Z,38.41
2018-12-23T05:10:49.535Z,38.39
2018-12-23T05:13:15.863Z,38.56
2018-12-23T05:15:42.240Z,38.56
2018-12-23T05:18:08.566Z,38.59
2018-12-23T05:20:34.896Z,38.41
2018-12-23T05:23:01.296Z,38.41
2018-12-23T05:25:27.623Z,38.46
2018-12-23T05:27:53.959Z,38.27
2018-12-23T05:30:20.296Z,38.29
2018-12-23T05:32:46.630Z,38.29
2018-12-23T05:35:12.982Z,38.40
2018-12-23T05:37:39.317Z,38.32
2018-12-23T05:40:05.653Z,38.42
2018-12-23T05:42:32.040Z,38.40
2018-12-23T05:44:58.363Z,38.34
2018-12-23T05:47:24.710Z,38.32
2018-12-23T05:49:51.043Z,38.12
2018-12-23T05:52:17.426Z,38.25
2018-12-23T05:54:43.755Z,38.26
2018-12-23T05:57:10.158Z,38.17
2018-12-23T05:59:36.646Z,38.23
2018-12-23T06:02:02.918Z,38.30
2018-12-23T06:04:29.211Z,38.40
2018-12-23T06:07:00.974Z,38.29
2018-12-23T06:09:21.951Z,38.15
2018-12-23T06:11:48.295Z,38.32
2018-12-23T06:14:14.636Z,38.11
2018-12-23T06:16:40.962Z,38.21
2018-12-23T06:19:07.312Z,38.27
2018-12-23T06:21:33.640Z,38.28
2018-12-23T06:23:59.982Z,38.30
2018-12-23T06:26:26.311Z,38.25
2018-12-23T06:28:52.721Z,38.12
2018-12-23T06:31:19.168Z,38.10
2018-12-23T06:33:45.500Z,38.18
2018-12-23T06:36:11.831Z,38.28
2018-12-23T06:38:38.158Z,38.22
2018-12-23T06:41:04.488Z,38.36
2018-12-23T06:43:30.820Z,38.18
2018-12-23T06:45:57.191Z,38.10
2018-12-23T06:48:23.527Z,38.03
2018-12-23T06:50:49.889Z,37.97
2018-12-23T06:53:16.220Z,38.09
2018-12-23T06:55:42.560Z,38.05
2018-12-23T06:58:08.979Z,38.04
2018-12-23T07:00:35.320Z,38.10
2018-12-23T07:03:01.653Z,38.13
2018-12-23T07:05:27.983Z,38.14
2018-12-23T07:07:54.320Z,37.92
2018-12-23T07:10:20.659Z,37.95
2018-12-23T07:12:46.996Z,37.99
2018-12-23T07:15:13.335Z,38.17
2018-12-23T07:17:39.686Z,37.98
2018-12-23T07:20:06.030Z,37.69
2018-12-23T07:22:32.374Z,37.70
2018-12-23T07:24:58.782Z,37.48
2018-12-23T07:27:25.107Z,37.17
2018-12-23T07:29:51.438Z,37.13
2018-12-23T07:32:17.867Z,36.91
2018-12-23T07:34:44.209Z,36.90
2018-12-23T07:37:10.565Z,36.70
2018-12-23T07:39:36.916Z,36.90
2018-12-23T07:42:03.255Z,36.49
2018-12-23T07:44:29.625Z,36.41
2018-12-23T07:46:55.990Z,36.36
2018-12-23T07:49:22.349Z,36.55
2018-12-23T07:51:48.677Z,36.38
2018-12-23T07:54:15.032Z,36.45
2018-12-23T07:56:41.362Z,36.38
2018-12-23T07:59:07.746Z,36.42
2018-12-23T08:01:34.123Z,36.46
2018-12-23T08:04:00.525Z,36.31
2018-12-23T08:06:26.860Z,36.26
2018-12-23T08:08:53.321Z,36.29
2018-12-23T08:11:19.732Z,36.17
2018-12-23T08:13:46.063Z,36.18
2018-12-23T08:16:12.391Z,36.21
2018-12-23T08:18:38.811Z,36.21
2018-12-23T08:21:05.250Z,36.17
2018-12-23T08:23:31.591Z,36.16
2018-12-23T08:25:57.918Z,36.14
2018-12-23T08:28:24.332Z,36.05
2018-12-23T08:30:50.723Z,36.29
2018-12-23T08:33:17.098Z,36.29
2018-12-23T08:35:43.429Z,36.26
2018-12-23T08:38:09.799Z,36.25
2018-12-23T08:40:36.185Z,36.33
2018-12-23T08:43:02.523Z,36.48
2018-12-23T08:45:28.900Z,36.53
2018-12-23T08:47:55.221Z,36.61
2018-12-23T08:50:21.621Z,36.68
2018-12-23T08:52:47.997Z,36.64
2018-12-23T08:55:14.326Z,36.63
2018-12-23T08:57:40.818Z,36.67
2018-12-23T09:00:07.332Z,36.75
2018-12-23T09:02:33.707Z,36.72
2018-12-23T09:05:00.040Z,36.73
2018-12-23T09:07:29.463Z,36.75
2018-12-23T09:09:57.192Z,36.89
2018-12-23T09:12:22.365Z,36.96
2018-12-23T09:14:48.696Z,37.00
2018-12-23T09:17:15.093Z,37.09
2018-12-23T09:19:41.497Z,37.15
2018-12-23T09:22:07.884Z,36.98
2018-12-23T09:24:34.382Z,37.21
2018-12-23T09:27:00.713Z,36.94
2018-12-23T09:29:27.146Z,37.17
2018-12-23T09:31:53.620Z,37.01
2018-12-23T09:34:19.888Z,37.06
2018-12-23T09:36:47.802Z,36.92
2018-12-23T09:39:12.637Z,36.75
2018-12-23T09:41:39.090Z,36.78
2018-12-23T09:44:05.502Z,36.64
2018-12-23T09:46:31.833Z,36.70
2018-12-23T09:48:58.208Z,36.66
2018-12-23T09:51:24.621Z,36.67
2018-12-23T09:53:50.953Z,36.63
2018-12-23T09:56:17.359Z,36.63
2018-12-23T09:58:43.792Z,36.64
2018-12-23T10:01:10.160Z,36.56
2018-12-23T10:03:36.520Z,36.54
2018-12-23T10:06:02.885Z,36.38
2018-12-23T10:08:29.313Z,36.36
2018-12-23T10:10:55.776Z,36.45
2018-12-23T10:13:22.115Z,36.35
2018-12-23T10:15:48.514Z,36.37
2018-12-23T10:18:14.996Z,36.52
2018-12-23T10:20:41.278Z,36.43
2018-12-23T10:23:07.666Z,36.30
2018-12-23T10:25:34.047Z,36.34
2018-12-23T10:28:00.434Z,36.40
2018-12-23T10:30:26.825Z,36.38
2018-12-23T10:32:53.153Z,36.43
2018-12-23T10:35:19.483Z,36.30
2018-12-23T10:37:45.870Z,36.36
2018-12-23T10:40:12.230Z,36.40
2018-12-23T10:42:38.635Z,36.29
2018-12-23T10:45:05.021Z,36.37
2018-12-23T10:47:31.434Z,36.36
2018-12-23T10:49:57.886Z,36.29
2018-12-23T10:52:24.293Z,36.28
2018-12-23T10:54:50.746Z,36.18
2018-12-23T10:57:17.066Z,36.27
2018-12-23T10:59:43.391Z,36.15
2018-12-23T11:02:13.583Z,36.11
2018-12-23T11:04:36.149Z,36.18
2018-12-23T11:07:02.548Z,36.32
2018-12-23T11:09:29.063Z,36.19
2018-12-23T11:11:55.514Z,36.15
2018-12-23T11:14:22.040Z,35.96
2018-12-23T11:16:48.469Z,35.86
2018-12-23T11:19:14.877Z,35.75
2018-12-23T11:21:41.289Z,35.77
2018-12-23T11:24:07.639Z,35.92
2018-12-23T11:26:34.048Z,35.99
2018-12-23T11:29:00.405Z,35.83
2018-12-23T11:31:26.799Z,35.84
2018-12-23T11:33:53.171Z,35.92
2018-12-23T11:36:19.512Z,35.94
2018-12-23T11:38:45.844Z,35.78
2018-12-23T11:41:12.239Z,35.69
2018-12-23T11:43:38.612Z,35.62
2018-12-23T11:46:05.000Z,35.52
2018-12-23T11:48:31.331Z,35.45
2018-12-23T11:50:57.749Z,35.44
2018-12-23T11:53:24.137Z,35.37
2018-12-23T11:55:50.520Z,35.38
2018-12-23T11:58:16.859Z,35.21
2018-12-23T12:00:43.292Z,35.08
2018-12-23T12:03:09.624Z,34.79
2018-12-23T12:05:36.510Z,34.89
2018-12-23T12:08:02.370Z,34.99
2018-12-23T12:10:28.740Z,34.93
2018-12-23T12:12:55.121Z,34.72
2018-12-23T12:15:21.487Z,34.68
2018-12-23T12:17:47.854Z,34.76
2018-12-23T12:20:14.245Z,34.76
2018-12-23T12:22:41.353Z,34.55
2018-12-23T12:25:07.009Z,34.58
2018-12-23T12:27:33.331Z,34.46
2018-12-23T12:29:59.677Z,34.25
2018-12-23T12:32:26.008Z,34.15
2018-12-23T12:34:52.557Z,34.20
2018-12-23T12:37:19.050Z,34.72
2018-12-23T12:39:45.376Z,34.60
2018-12-23T12:42:11.730Z,34.40
2018-12-23T12:44:38.102Z,34.40
2018-12-23T12:47:04.440Z,34.26
2018-12-23T12:49:30.847Z,34.27
2018-12-23T12:51:57.257Z,34.37
2018-12-23T12:54:23.588Z,34.21
2018-12-23T12:56:49.997Z,34.40
2018-12-23T12:59:16.334Z,34.26
2018-12-23T13:01:42.751Z,34.64
2018-12-23T13:04:09.130Z,35.47
2018-12-23T13:06:35.531Z,35.86
2018-12-23T13:09:01.855Z,36.00
2018-12-23T13:11:28.240Z,35.87
2018-12-23T13:13:54.565Z,35.77
2018-12-23T13:16:20.957Z,35.65
2018-12-23T13:18:47.304Z,35.72
2018-12-23T13:21:13.682Z,35.71
2018-12-23T13:23:40.012Z,35.56
2018-12-23T13:26:06.400Z,35.47
2018-12-23T13:28:32.733Z,35.28
2018-12-23T13:30:59.121Z,35.19
2018-12-23T13:33:25.504Z,35.15
2018-12-23T13:35:51.845Z,35.14
2018-12-23T13:38:18.183Z,35.07
2018-12-23T13:40:44.569Z,34.92
2018-12-23T13:43:10.944Z,34.93
2018-12-23T13:45:37.354Z,35.04
2018-12-23T13:48:03.663Z,35.07
2018-12-23T13:50:30.242Z,35.13
2018-12-23T13:52:56.589Z,35.19
2018-12-23T13:55:23.099Z,35.11
2018-12-23T13:57:49.431Z,35.02
2018-12-23T14:00:15.839Z,35.12
2018-12-23T14:02:42.295Z,35.14
2018-12-23T14:05:08.694Z,35.43
2018-12-23T14:07:35.158Z,35.47
2018-12-23T14:10:02.814Z,35.63
2018-12-23T14:12:28.034Z,35.73
2018-12-23T14:14:54.563Z,36.24
2018-12-23T14:17:20.974Z,36.39
2018-12-23T14:19:47.272Z,36.26
2018-12-23T14:22:13.631Z,36.38
2018-12-23T14:24:40.090Z,36.70
2018-12-23T14:27:06.485Z,36.75
2018-12-23T14:29:32.828Z,37.35
2018-12-23T14:31:59.230Z,37.34
2018-12-23T14:34:25.600Z,37.44
2018-12-23T14:36:52.031Z,37.46
2018-12-23T14:39:25.776Z,37.29
2018-12-23T14:41:44.994Z,37.18
2018-12-23T14:44:11.346Z,37.03
2018-12-23T14:46:37.767Z,37.54
2018-12-23T14:49:04.102Z,36.97
2018-12-23T14:51:30.505Z,37.34
2018-12-23T14:53:56.852Z,37.39
2018-12-23T14:56:23.182Z,37.25
2018-12-23T14:58:49.566Z,36.98
2018-12-23T15:01:15.904Z,37.01
2018-12-23T15:03:42.292Z,36.96
2018-12-23T15:06:08.669Z,37.06
2018-12-23T15:08:36.195Z,36.93
2018-12-23T15:11:01.410Z,36.94
2018-12-23T15:13:27.756Z,36.77
2018-12-23T15:15:54.137Z,36.93
2018-12-23T15:18:20.516Z,36.74
2018-12-23T15:20:46.843Z,36.49
2018-12-23T15:23:13.240Z,36.50
2018-12-23T15:25:39.571Z,36.44
2018-12-23T15:28:05.901Z,36.38
2018-12-23T15:30:32.237Z,36.36
2018-12-23T15:32:58.604Z,36.34
2018-12-23T15:35:24.934Z,36.33
2018-12-23T15:37:51.264Z,36.17
2018-12-23T15:40:17.669Z,36.09
2018-12-23T15:42:44.030Z,36.22
2018-12-23T15:45:10.439Z,36.13
2018-12-23T15:47:36.743Z,36.09
2018-12-23T15:50:03.137Z,35.99
2018-12-23T15:52:29.475Z,36.29
2018-12-23T15:54:55.792Z,36.50
2018-12-23T15:57:22.204Z,36.67
2018-12-23T15:59:48.544Z,36.58
2018-12-23T16:02:14.875Z,36.63
2018-12-23T16:04:41.262Z,36.66
2018-12-23T16:07:07.602Z,36.79
2018-12-23T16:09:33.935Z,36.85
2018-12-23T16:12:00.303Z,36.76
2018-12-23T16:14:26.634Z,36.73
2018-12-23T16:16:53.018Z,36.86
2018-12-23T16:19:19.350Z,37.05
2018-12-23T16:21:45.743Z,37.51
2018-12-23T16:24:12.072Z,37.52
2018-12-23T16:26:38.411Z,37.58
2018-12-23T16:29:04.762Z,37.53
2018-12-23T16:31:31.090Z,37.53
2018-12-23T16:33:57.457Z,37.72
2018-12-23T16:36:23.792Z,37.82
2018-12-23T16:38:50.112Z,37.63
2018-12-23T16:41:16.449Z,37.86
2018-12-23T16:43:42.780Z,37.97
2018-12-23T16:46:09.103Z,37.38
2018-12-23T16:48:35.441Z,37.58
2018-12-23T16:51:01.767Z,37.73
2018-12-23T16:53:28.149Z,37.86
2018-12-23T16:55:54.546Z,37.88
2018-12-23T16:58:20.880Z,37.93
2018-12-23T17:00:47.276Z,38.13
2018-12-23T17:03:13.661Z,38.11
2018-12-23T17:05:40.072Z,38.22
2018-12-23T17:08:06.422Z,38.30
2018-12-23T17:10:32.765Z,38.44
2018-12-23T17:12:59.186Z,38.33
2018-12-23T17:15:25.489Z,38.20
2018-12-23T17:17:51.891Z,38.52
2018-12-23T17:20:18.223Z,38.35
2018-12-23T17:22:44.562Z,38.24
2018-12-23T17:25:10.908Z,38.18
2018-12-23T17:27:37.295Z,38.24
2018-12-23T17:30:03.683Z,38.27
2018-12-23T17:32:30.020Z,38.05
2018-12-23T17:34:56.420Z,38.25
2018-12-23T17:37:22.750Z,38.18
2018-12-23T17:39:49.089Z,38.18
2018-12-23T17:42:15.520Z,38.24
2018-12-23T17:44:41.915Z,38.27
2018-12-23T17:47:08.333Z,38.00
2018-12-23T17:49:34.647Z,38.05
2018-12-23T17:52:00.971Z,38.21
2018-12-23T17:54:27.301Z,38.16
2018-12-23T17:56:53.667Z,38.17
2018-12-23T17:59:20.001Z,38.04
2018-12-23T18:01:46.351Z,38.22
2018-12-23T18:04:12.684Z,37.96
2018-12-23T18:06:39.062Z,38.02
2018-12-23T18:09:05.398Z,38.14
2018-12-23T18:11:31.752Z,38.05
2018-12-23T18:13:58.134Z,38.19
2018-12-23T18:16:24.489Z,38.16
2018-12-23T18:18:50.896Z,38.17
2018-12-23T18:21:17.232Z,38.17
2018-12-23T18:23:45.547Z,37.99
2018-12-23T18:26:09.910Z,38.21
2018-12-23T18:28:36.310Z,38.16
2018-12-23T18:31:02.648Z,38.27
2018-12-23T18:33:29.009Z,38.25
2018-12-23T18:35:55.315Z,38.32
2018-12-23T18:38:21.648Z,38.40
2018-12-23T18:40:48.048Z,38.26
2018-12-23T18:43:14.483Z,38.27
2018-12-23T18:45:40.891Z,38.38
2018-12-23T18:48:07.235Z,38.24
2018-12-23T18:50:33.567Z,38.24
2018-12-23T18:52:59.964Z,38.33
2018-12-23T18:55:26.318Z,38.27
2018-12-23T18:57:52.696Z,38.26
2018-12-23T19:00:19.139Z,38.35
2018-12-23T19:02:45.452Z,38.25
2018-12-23T19:05:11.791Z,38.47
2018-12-23T19:07:38.146Z,38.29
2018-12-23T19:10:04.547Z,38.28
2018-12-23T19:12:30.877Z,38.48
2018-12-23T19:14:57.312Z,38.31
2018-12-23T19:17:23.674Z,38.42
2018-12-23T19:19:50.016Z,38.48
2018-12-23T19:22:16.360Z,38.35
2018-12-23T19:24:42.835Z,38.36
2018-12-23T19:27:09.201Z,38.43
2018-12-23T19:29:35.499Z,38.50
2018-12-23T19:32:01.924Z,38.52
2018-12-23T19:34:33.791Z,38.40
2018-12-23T19:36:54.629Z,38.46
2018-12-23T19:39:21.061Z,38.38
2018-12-23T19:41:47.358Z,38.33
2018-12-23T19:44:13.737Z,38.38
2018-12-23T19:46:42.567Z,38.35
2018-12-23T19:49:08.982Z,38.49
2018-12-23T19:51:35.319Z,38.40
2018-12-23T19:54:01.651Z,38.49
2018-12-23T19:56:28.009Z,38.37
2018-12-23T19:58:54.397Z,38.42
2018-12-23T20:01:20.742Z,38.43
2018-12-23T20:03:47.106Z,38.41
2018-12-23T20:06:13.462Z,38.45
2018-12-23T20:08:39.837Z,38.44
2018-12-23T20:11:06.175Z,38.32
2018-12-23T20:13:32.591Z,38.38
2018-12-23T20:15:59.034Z,38.26
2018-12-23T20:18:25.302Z,38.24
2018-12-23T20:20:51.617Z,38.32
2018-12-23T20:23:18.007Z,38.31
2018-12-23T20:25:44.338Z,38.46
2018-12-23T20:28:10.673Z,38.47
2018-12-23T20:30:37.081Z,38.60
2018-12-23T20:33:03.352Z,38.32
2018-12-23T20:35:29.702Z,38.42
2018-12-23T20:37:56.071Z,38.40
2018-12-23T20:40:22.421Z,38.35
2018-12-23T20:42:48.795Z,38.20
2018-12-23T20:45:15.197Z,38.55
2018-12-23T20:47:41.523Z,38.53
2018-12-23T20:50:07.913Z,38.52
2018-12-23T20:52:34.252Z,38.61
2018-12-23T20:55:00.735Z,38.50
2018-12-23T20:57:27.082Z,38.50
2018-12-23T20:59:53.432Z,38.47
2018-12-23T21:02:19.760Z,38.53
2018-12-23T21:04:46.122Z,38.58
2018-12-23T21:07:12.466Z,38.59
2018-12-23T21:09:38.835Z,38.46
2018-12-23T21:12:05.166Z,38.52
2018-12-23T21:14:31.542Z,38.52
2018-12-23T21:16:57.909Z,38.43
2018-12-23T21:19:24.242Z,38.39
2018-12-23T21:21:50.582Z,38.39
2018-12-23T21:24:16.923Z,38.54
2018-12-23T21:26:43.263Z,38.57
2018-12-23T21:29:09.648Z,38.02
2018-12-23T21:31:35.980Z,38.07
2018-12-23T21:34:02.323Z,38.18
2018-12-23T21:36:28.674Z,38.34
2018-12-23T21:38:55.064Z,38.22
2018-12-23T21:41:24.512Z,38.42
2018-12-23T21:43:47.753Z,38.51
2018-12-23T21:46:14.161Z,38.57
2018-12-23T21:48:40.494Z,38.51
2018-12-23T21:51:06.881Z,38.58
2018-12-23T21:53:33.205Z,38.50
2018-12-23T21:55:59.533Z,38.48
2018-12-23T21:58:25.858Z,38.42
2018-12-23T22:00:52.255Z,38.36
2018-12-23T22:03:18.587Z,38.57
2018-12-23T22:05:44.998Z,38.53
2018-12-23T22:08:11.298Z,38.52
2018-12-23T22:10:37.693Z,38.42
2018-12-23T22:13:04.040Z,38.32
2018-12-23T22:15:30.430Z,38.35
2018-12-23T22:17:56.778Z,38.24
2018-12-23T22:20:23.105Z,38.43
2018-12-23T22:22:49.481Z,38.30
2018-12-23T22:25:15.801Z,38.23
2018-12-23T22:27:42.150Z,38.17
2018-12-23T22:30:08.477Z,38.26
2018-12-23T22:32:34.810Z,38.12
2018-12-23T22:35:01.188Z,38.12
2018-12-23T22:37:27.586Z,37.93
2018-12-23T22:39:53.988Z,38.08
2018-12-23T22:42:20.305Z,38.26
2018-12-23T22:44:46.640Z,38.08
2018-12-23T22:47:12.999Z,38.04
2018-12-23T22:49:39.343Z,38.17
2018-12-23T22:52:05.722Z,38.03
2018-12-23T22:54:32.046Z,38.08
2018-12-23T22:56:58.384Z,37.91
2018-12-23T22:59:24.734Z,37.96
2018-12-23T23:01:51.057Z,38.11
2018-12-23T23:04:17.449Z,37.93
2018-12-23T23:06:43.780Z,37.94
2018-12-23T23:09:10.153Z,37.99
2018-12-23T23:11:36.463Z,37.85
2018-12-23T23:14:02.813Z,37.86
2018-12-23T23:16:30.406Z,37.69
2018-12-23T23:18:55.665Z,37.92
2018-12-23T23:21:21.995Z,37.89
2018-12-23T23:23:48.326Z,38.00
2018-12-23T23:26:14.651Z,37.88
2018-12-23T23:28:41.055Z,37.95
2018-12-23T23:31:07.491Z,37.74
2018-12-23T23:33:33.720Z,37.78
2018-12-23T23:36:00.095Z,37.72
2018-12-23T23:38:26.392Z,37.65
2018-12-23T23:40:52.766Z,37.94
2018-12-23T23:43:20.754Z,37.93
2018-12-23T23:45:45.702Z,37.82
2018-12-23T23:48:12.119Z,37.90
2018-12-23T23:50:38.523Z,37.75
2018-12-23T23:53:04.873Z,37.76
2018-12-23T23:55:31.205Z,37.73
2018-12-23T23:57:57.552Z,37.74
